createdAt,value
2023-02-01T00:00:39.593Z,18.84
2023-02-01T00:01:40.197Z,18.88
2023-02-01T00:02:40.871Z,18.83
2023-02-01T00:03:41.600Z,18.78
2023-02-01T00:04:42.234Z,18.78
2023-02-01T00:05:42.839Z,18.77
2023-02-01T00:06:43.431Z,18.77
2023-02-01T00:07:44.081Z,18.75
2023-02-01T00:08:44.682Z,18.73
2023-02-01T00:09:45.277Z,18.73
2023-02-01T00:10:45.876Z,18.60
2023-02-01T00:11:46.480Z,18.65
2023-02-01T00:12:47.066Z,18.62
2023-02-01T00:13:47.656Z,18.63
2023-02-01T00:14:48.260Z,18.65
2023-02-01T00:15:48.919Z,18.58
2023-02-01T00:16:49.570Z,18.58
2023-02-01T00:17:50.172Z,18.58
2023-02-01T00:18:50.775Z,18.53
2023-02-01T00:19:51.370Z,18.45
2023-02-01T00:20:51.968Z,18.49
2023-02-01T00:21:52.562Z,18.53
2023-02-01T00:22:53.267Z,18.56
2023-02-01T00:23:53.861Z,18.50
2023-02-01T00:24:54.464Z,18.52
2023-02-01T00:25:55.051Z,18.47
2023-02-01T00:26:55.862Z,18.43
2023-02-01T00:27:56.468Z,18.44
2023-02-01T00:28:57.078Z,18.47
2023-02-01T00:29:57.743Z,18.43
2023-02-01T00:30:58.425Z,18.41
2023-02-01T00:31:59.122Z,18.43
2023-02-01T00:32:59.768Z,18.37
2023-02-01T00:34:00.365Z,18.31
2023-02-01T00:35:01.071Z,18.40
2023-02-01T00:36:01.665Z,18.29
2023-02-01T00:37:02.269Z,18.33
2023-02-01T00:38:02.859Z,18.31
2023-02-01T00:39:03.460Z,18.29
2023-02-01T00:40:04.208Z,18.31
2023-02-01T00:41:04.800Z,18.31
2023-02-01T00:42:05.401Z,18.28
2023-02-01T00:43:06.794Z,18.28
2023-02-01T00:44:07.400Z,18.20
2023-02-01T00:45:07.996Z,18.33
2023-02-01T00:46:08.874Z,18.25
2023-02-01T00:47:09.480Z,18.23
2023-02-01T00:48:10.074Z,18.15
2023-02-01T00:49:10.677Z,18.22
2023-02-01T00:50:11.272Z,18.08
2023-02-01T00:51:11.869Z,18.19
2023-02-01T00:52:12.461Z,18.15
2023-02-01T00:53:13.078Z,18.23
2023-02-01T00:54:13.671Z,18.23
2023-02-01T00:55:14.273Z,18.05
2023-02-01T00:56:14.873Z,18.07
2023-02-01T00:57:15.473Z,18.15
2023-02-01T00:58:16.069Z,18.15
2023-02-01T00:59:16.667Z,18.10
2023-02-01T01:00:17.261Z,18.13
2023-02-01T01:01:17.869Z,18.15
2023-02-01T01:02:18.561Z,17.97
2023-02-01T01:03:19.216Z,18.01
2023-02-01T01:04:19.807Z,18.05
2023-02-01T01:05:20.413Z,18.03
2023-02-01T01:06:21.091Z,18.07
2023-02-01T01:07:21.685Z,18.00
2023-02-01T01:08:22.288Z,17.98
2023-02-01T01:09:22.883Z,18.00
2023-02-01T01:10:23.788Z,17.98
2023-02-01T01:11:24.482Z,18.04
2023-02-01T01:12:25.071Z,18.01
2023-02-01T01:13:25.660Z,17.97
2023-02-01T01:14:26.263Z,18.01
2023-02-01T01:15:26.853Z,17.94
2023-02-01T01:16:27.500Z,18.00
2023-02-01T01:17:28.124Z,17.98
2023-02-01T01:18:28.718Z,18.01
2023-02-01T01:19:29.326Z,17.90
2023-02-01T01:20:29.926Z,17.90
2023-02-01T01:21:30.533Z,17.94
2023-02-01T01:22:31.114Z,17.85
2023-02-01T01:23:31.719Z,17.89
2023-02-01T01:24:32.316Z,17.85
2023-02-01T01:25:32.968Z,17.89
2023-02-01T01:26:33.578Z,17.89
2023-02-01T01:27:34.194Z,17.90
2023-02-01T01:28:34.765Z,17.85
2023-02-01T01:29:35.368Z,17.86
2023-02-01T01:30:36.015Z,17.85
2023-02-01T01:31:36.653Z,17.89
2023-02-01T01:32:38.103Z,17.89
2023-02-01T01:33:38.687Z,17.82
2023-02-01T01:34:39.389Z,17.83
2023-02-01T01:35:39.979Z,17.80
2023-02-01T01:36:40.585Z,17.86
2023-02-01T01:37:41.185Z,17.76
2023-02-01T01:38:41.776Z,17.82
2023-02-01T01:39:42.385Z,17.79
2023-02-01T01:40:43.891Z,17.78
2023-02-01T01:41:44.497Z,17.70
2023-02-01T01:42:45.101Z,17.72
2023-02-01T01:43:45.691Z,17.80
2023-02-01T01:44:46.449Z,17.70
2023-02-01T01:45:47.054Z,17.71
2023-02-01T01:46:47.819Z,17.76
2023-02-01T01:47:48.403Z,17.70
2023-02-01T01:48:48.999Z,17.72
2023-02-01T01:49:49.693Z,17.72
2023-02-01T01:50:50.278Z,17.78
2023-02-01T01:51:50.939Z,17.76
2023-02-01T01:52:51.540Z,17.74
2023-02-01T01:53:52.132Z,17.74
2023-02-01T01:54:52.725Z,17.71
2023-02-01T01:55:53.346Z,17.72
2023-02-01T01:56:53.919Z,17.72
2023-02-01T01:57:54.522Z,17.70
2023-02-01T01:58:55.123Z,17.67
2023-02-01T01:59:55.728Z,17.68
2023-02-01T02:00:56.349Z,17.70
2023-02-01T02:01:56.979Z,17.70
2023-02-01T02:02:57.575Z,17.67
2023-02-01T02:03:58.157Z,17.68
2023-02-01T02:04:58.753Z,17.67
2023-02-01T02:05:59.347Z,17.65
2023-02-01T02:06:59.947Z,17.70
2023-02-01T02:08:00.619Z,17.59
2023-02-01T02:09:01.206Z,17.65
2023-02-01T02:10:01.858Z,17.67
2023-02-01T02:11:03.311Z,17.67
2023-02-01T02:12:03.913Z,17.60
2023-02-01T02:13:04.528Z,17.65
2023-02-01T02:14:05.105Z,17.57
2023-02-01T02:15:05.700Z,17.51
2023-02-01T02:16:06.381Z,17.57
2023-02-01T02:17:06.995Z,17.59
2023-02-01T02:18:07.587Z,17.52
2023-02-01T02:19:08.192Z,17.60
2023-02-01T02:20:08.786Z,17.56
2023-02-01T02:21:09.390Z,17.54
2023-02-01T02:22:10.066Z,17.49
2023-02-01T02:23:10.678Z,17.54
2023-02-01T02:24:11.314Z,17.49
2023-02-01T02:25:11.914Z,17.52
2023-02-01T02:26:12.509Z,17.48
2023-02-01T02:27:13.102Z,17.52
2023-02-01T02:28:13.706Z,17.51
2023-02-01T02:29:14.296Z,17.49
2023-02-01T02:30:14.894Z,17.48
2023-02-01T02:31:15.529Z,17.44
2023-02-01T02:32:16.119Z,17.59
2023-02-01T02:33:16.724Z,17.45
2023-02-01T02:34:17.339Z,17.46
2023-02-01T02:35:17.931Z,17.48
2023-02-01T02:36:18.590Z,17.42
2023-02-01T02:37:19.185Z,17.42
2023-02-01T02:38:20.587Z,17.46
2023-02-01T02:39:21.189Z,17.45
2023-02-01T02:40:22.060Z,17.46
2023-02-01T02:41:22.977Z,17.45
2023-02-01T02:42:23.581Z,17.38
2023-02-01T02:43:24.253Z,17.36
2023-02-01T02:44:24.852Z,17.45
2023-02-01T02:45:25.557Z,17.41
2023-02-01T02:46:26.254Z,17.44
2023-02-01T02:47:26.854Z,17.44
2023-02-01T02:48:27.677Z,17.34
2023-02-01T02:49:28.349Z,17.34
2023-02-01T02:50:29.009Z,17.38
2023-02-01T02:51:29.653Z,17.39
2023-02-01T02:52:30.261Z,17.42
2023-02-01T02:53:30.853Z,17.44
2023-02-01T02:54:31.646Z,17.44
2023-02-01T02:55:32.238Z,17.42
2023-02-01T02:56:32.830Z,17.45
2023-02-01T02:57:33.432Z,17.39
2023-02-01T02:58:34.033Z,17.36
2023-02-01T02:59:34.627Z,17.38
2023-02-01T03:00:35.221Z,17.49
2023-02-01T03:01:35.828Z,17.30
2023-02-01T03:02:36.460Z,17.33
2023-02-01T03:03:37.059Z,17.29
2023-02-01T03:04:37.649Z,17.31
2023-02-01T03:05:38.251Z,17.31
2023-02-01T03:06:38.847Z,17.27
2023-02-01T03:07:39.511Z,17.34
2023-02-01T03:08:40.113Z,17.24
2023-02-01T03:09:40.730Z,17.31
2023-02-01T03:10:41.330Z,17.39
2023-02-01T03:11:41.933Z,17.33
2023-02-01T03:12:42.532Z,17.31
2023-02-01T03:13:43.136Z,17.30
2023-02-01T03:14:43.728Z,17.34
2023-02-01T03:15:44.328Z,17.29
2023-02-01T03:16:44.978Z,17.30
2023-02-01T03:17:45.557Z,17.33
2023-02-01T03:18:46.163Z,17.30
2023-02-01T03:19:46.760Z,17.23
2023-02-01T03:20:47.363Z,17.24
2023-02-01T03:21:47.963Z,17.23
2023-02-01T03:22:48.560Z,17.23
2023-02-01T03:23:49.212Z,17.14
2023-02-01T03:24:49.815Z,17.15
2023-02-01T03:25:50.411Z,17.11
2023-02-01T03:26:51.047Z,17.20
2023-02-01T03:27:51.659Z,17.14
2023-02-01T03:28:52.261Z,17.23
2023-02-01T03:29:52.864Z,17.29
2023-02-01T03:30:53.542Z,17.24
2023-02-01T03:31:54.242Z,17.19
2023-02-01T03:32:54.905Z,17.19
2023-02-01T03:33:55.558Z,17.16
2023-02-01T03:34:56.143Z,17.08
2023-02-01T03:35:56.743Z,17.14
2023-02-01T03:36:57.395Z,17.04
2023-02-01T03:37:57.995Z,17.04
2023-02-01T03:38:58.596Z,17.14
2023-02-01T03:39:59.197Z,17.09
2023-02-01T03:40:59.790Z,17.19
2023-02-01T03:42:00.396Z,17.14
2023-02-01T03:43:01.045Z,17.14
2023-02-01T03:44:01.643Z,17.09
2023-02-01T03:45:02.245Z,17.12
2023-02-01T03:46:02.893Z,17.15
2023-02-01T03:47:03.477Z,17.05
2023-02-01T03:48:04.076Z,17.05
2023-02-01T03:49:04.794Z,17.08
2023-02-01T03:50:05.378Z,17.12
2023-02-01T03:51:05.967Z,17.05
2023-02-01T03:52:06.577Z,17.02
2023-02-01T03:53:07.164Z,17.05
2023-02-01T03:54:07.806Z,17.05
2023-02-01T03:55:08.407Z,17.05
2023-02-01T03:56:09.004Z,17.05
2023-02-01T03:57:09.752Z,17.05
2023-02-01T03:58:10.351Z,17.04
2023-02-01T03:59:10.955Z,17.06
2023-02-01T04:00:11.605Z,17.06
2023-02-01T04:01:12.254Z,17.04
2023-02-01T04:02:12.908Z,17.01
2023-02-01T04:03:13.510Z,17.02
2023-02-01T04:04:14.103Z,16.94
2023-02-01T04:05:14.697Z,17.01
2023-02-01T04:06:15.298Z,17.06
2023-02-01T04:07:15.888Z,17.01
2023-02-01T04:08:16.489Z,17.01
2023-02-01T04:09:17.086Z,16.99
2023-02-01T04:10:19.723Z,16.96
2023-02-01T04:11:19.335Z,16.97
2023-02-01T04:12:19.936Z,16.94
2023-02-01T04:13:21.334Z,16.97
2023-02-01T04:14:22.001Z,16.96
2023-02-01T04:15:22.605Z,16.93
2023-02-01T04:16:23.249Z,16.94
2023-02-01T04:17:23.830Z,16.91
2023-02-01T04:18:24.433Z,16.90
2023-02-01T04:19:25.034Z,17.01
2023-02-01T04:20:25.879Z,17.01
2023-02-01T04:21:26.546Z,16.91
2023-02-01T04:22:27.148Z,16.87
2023-02-01T04:23:27.746Z,16.91
2023-02-01T04:24:28.336Z,16.96
2023-02-01T04:25:28.927Z,16.91
2023-02-01T04:26:29.526Z,17.05
2023-02-01T04:27:30.151Z,16.93
2023-02-01T04:28:30.727Z,16.91
2023-02-01T04:29:31.380Z,16.96
2023-02-01T04:30:32.045Z,16.97
2023-02-01T04:31:32.724Z,17.01
2023-02-01T04:32:33.361Z,16.96
2023-02-01T04:33:33.961Z,16.96
2023-02-01T04:34:34.624Z,16.99
2023-02-01T04:35:35.228Z,16.99
2023-02-01T04:36:35.895Z,17.01
2023-02-01T04:37:36.500Z,16.99
2023-02-01T04:38:37.150Z,16.93
2023-02-01T04:39:37.745Z,16.96
2023-02-01T04:40:38.339Z,16.97
2023-02-01T04:41:38.957Z,17.02
2023-02-01T04:42:39.558Z,16.93
2023-02-01T04:43:40.147Z,16.93
2023-02-01T04:44:40.790Z,16.89
2023-02-01T04:45:41.384Z,16.97
2023-02-01T04:46:41.987Z,16.84
2023-02-01T04:47:42.590Z,16.89
2023-02-01T04:48:43.194Z,16.97
2023-02-01T04:49:43.865Z,16.91
2023-02-01T04:50:44.469Z,16.79
2023-02-01T04:51:45.068Z,16.96
2023-02-01T04:52:45.659Z,16.90
2023-02-01T04:53:46.259Z,16.93
2023-02-01T04:54:46.847Z,16.90
2023-02-01T04:55:47.452Z,16.90
2023-02-01T04:56:48.037Z,16.89
2023-02-01T04:57:48.698Z,16.90
2023-02-01T04:58:49.285Z,16.83
2023-02-01T04:59:49.876Z,16.89
2023-02-01T05:00:51.269Z,16.79
2023-02-01T05:01:51.868Z,16.81
2023-02-01T05:02:52.522Z,16.79
2023-02-01T05:03:53.112Z,16.86
2023-02-01T05:04:53.731Z,16.84
2023-02-01T05:05:54.331Z,16.89
2023-02-01T05:06:54.925Z,16.79
2023-02-01T05:07:55.587Z,16.86
2023-02-01T05:08:57.035Z,16.83
2023-02-01T05:09:57.640Z,16.83
2023-02-01T05:10:58.302Z,16.84
2023-02-01T05:11:58.909Z,16.79
2023-02-01T05:12:59.499Z,16.79
2023-02-01T05:14:02.148Z,16.86
2023-02-01T05:15:01.685Z,16.79
2023-02-01T05:16:02.328Z,16.76
2023-02-01T05:17:02.941Z,16.83
2023-02-01T05:18:03.551Z,16.83
2023-02-01T05:19:04.138Z,16.86
2023-02-01T05:20:04.739Z,16.81
2023-02-01T05:21:05.495Z,16.83
2023-02-01T05:22:06.067Z,16.84
2023-02-01T05:23:07.470Z,16.72
2023-02-01T05:24:08.072Z,16.72
2023-02-01T05:25:08.732Z,16.76
2023-02-01T05:26:09.324Z,16.79
2023-02-01T05:27:09.921Z,16.72
2023-02-01T05:28:10.572Z,16.74
2023-02-01T05:29:11.149Z,16.79
2023-02-01T05:30:11.756Z,16.78
2023-02-01T05:31:12.452Z,16.78
2023-02-01T05:32:22.089Z,16.68
2023-02-01T05:33:14.654Z,16.79
2023-02-01T05:34:15.253Z,16.72
2023-02-01T05:35:15.844Z,16.72
2023-02-01T05:36:16.461Z,16.71
2023-02-01T05:37:17.057Z,16.69
2023-02-01T05:38:17.696Z,16.69
2023-02-01T05:39:18.297Z,16.72
2023-02-01T05:40:18.895Z,16.72
2023-02-01T05:41:19.494Z,16.69
2023-02-01T05:42:20.106Z,16.76
2023-02-01T05:43:20.689Z,16.69
2023-02-01T05:44:21.291Z,16.66
2023-02-01T05:45:21.921Z,16.69
2023-02-01T05:46:22.560Z,16.72
2023-02-01T05:47:23.155Z,16.69
2023-02-01T05:48:23.900Z,16.74
2023-02-01T05:49:24.495Z,16.72
2023-02-01T05:50:25.423Z,16.72
2023-02-01T05:51:26.058Z,16.65
2023-02-01T05:52:26.659Z,16.72
2023-02-01T05:53:27.250Z,16.72
2023-02-01T05:54:27.843Z,16.60
2023-02-01T05:55:28.436Z,16.69
2023-02-01T05:56:29.096Z,16.64
2023-02-01T05:57:29.722Z,16.61
2023-02-01T05:58:30.303Z,16.68
2023-02-01T05:59:30.903Z,16.60
2023-02-01T06:00:31.494Z,16.66
2023-02-01T06:01:32.136Z,16.65
2023-02-01T06:02:32.742Z,16.64
2023-02-01T06:03:33.366Z,16.66
2023-02-01T06:04:33.954Z,16.57
2023-02-01T06:05:34.559Z,16.57
2023-02-01T06:06:35.157Z,16.64
2023-02-01T06:07:35.742Z,16.58
2023-02-01T06:08:36.397Z,16.65
2023-02-01T06:09:36.982Z,16.61
2023-02-01T06:10:37.583Z,16.61
2023-02-01T06:11:39.027Z,16.61
2023-02-01T06:12:39.628Z,16.64
2023-02-01T06:13:40.224Z,16.65
2023-02-01T06:14:40.816Z,16.68
2023-02-01T06:15:41.433Z,16.60
2023-02-01T06:16:42.010Z,16.60
2023-02-01T06:17:42.609Z,16.60
2023-02-01T06:18:43.203Z,16.64
2023-02-01T06:19:43.794Z,16.64
2023-02-01T06:20:44.398Z,16.60
2023-02-01T06:21:45.042Z,16.60
2023-02-01T06:22:45.636Z,16.60
2023-02-01T06:23:46.279Z,16.68
2023-02-01T06:24:46.919Z,16.64
2023-02-01T06:25:47.510Z,16.61
2023-02-01T06:26:48.147Z,16.64
2023-02-01T06:27:48.752Z,16.64
2023-02-01T06:28:49.357Z,16.65
2023-02-01T06:29:49.947Z,16.64
2023-02-01T06:30:51.444Z,16.64
2023-02-01T06:31:52.145Z,16.58
2023-02-01T06:32:52.786Z,16.61
2023-02-01T06:33:53.375Z,16.57
2023-02-01T06:34:53.966Z,16.58
2023-02-01T06:35:54.570Z,16.58
2023-02-01T06:36:55.224Z,16.58
2023-02-01T06:37:55.814Z,16.64
2023-02-01T06:38:56.431Z,16.57
2023-02-01T06:39:57.003Z,16.58
2023-02-01T06:40:57.649Z,16.61
2023-02-01T06:41:58.261Z,16.53
2023-02-01T06:42:58.922Z,16.60
2023-02-01T06:43:59.518Z,16.57
2023-02-01T06:45:00.189Z,16.60
2023-02-01T06:46:00.840Z,16.57
2023-02-01T06:47:01.451Z,16.56
2023-02-01T06:48:02.076Z,16.61
2023-02-01T06:49:02.691Z,16.58
2023-02-01T06:50:03.271Z,16.57
2023-02-01T06:51:03.875Z,16.56
2023-02-01T06:52:04.474Z,16.56
2023-02-01T06:53:05.061Z,16.57
2023-02-01T06:54:05.652Z,16.58
2023-02-01T06:55:06.253Z,16.64
2023-02-01T06:56:06.848Z,16.56
2023-02-01T06:57:07.448Z,16.51
2023-02-01T06:58:08.051Z,16.57
2023-02-01T06:59:08.660Z,16.47
2023-02-01T07:00:09.276Z,16.57
2023-02-01T07:01:09.905Z,16.54
2023-02-01T07:02:10.597Z,16.57
2023-02-01T07:03:11.239Z,16.57
2023-02-01T07:04:11.842Z,16.58
2023-02-01T07:05:12.504Z,16.54
2023-02-01T07:06:13.104Z,16.50
2023-02-01T07:07:13.700Z,16.47
2023-02-01T07:08:14.293Z,16.49
2023-02-01T07:09:14.943Z,16.47
2023-02-01T07:10:15.536Z,16.50
2023-02-01T07:11:16.136Z,16.50
2023-02-01T07:12:16.737Z,16.51
2023-02-01T07:13:17.346Z,16.49
2023-02-01T07:14:17.949Z,16.43
2023-02-01T07:15:18.535Z,16.49
2023-02-01T07:16:19.278Z,16.46
2023-02-01T07:17:19.904Z,16.46
2023-02-01T07:18:20.497Z,16.39
2023-02-01T07:19:21.089Z,16.49
2023-02-01T07:20:22.047Z,16.49
2023-02-01T07:21:22.812Z,16.47
2023-02-01T07:22:23.455Z,16.49
2023-02-01T07:23:24.058Z,16.47
2023-02-01T07:24:24.733Z,16.43
2023-02-01T07:25:25.334Z,16.57
2023-02-01T07:26:25.975Z,16.47
2023-02-01T07:27:26.588Z,16.47
2023-02-01T07:28:27.202Z,16.46
2023-02-01T07:29:27.835Z,16.46
2023-02-01T07:30:28.515Z,16.46
2023-02-01T07:31:29.114Z,16.50
2023-02-01T07:32:29.770Z,16.43
2023-02-01T07:33:30.374Z,16.49
2023-02-01T07:34:31.147Z,16.47
2023-02-01T07:35:31.717Z,16.43
2023-02-01T07:36:32.319Z,16.47
2023-02-01T07:37:33.786Z,16.43
2023-02-01T07:38:34.423Z,16.51
2023-02-01T07:39:35.008Z,16.46
2023-02-01T07:40:35.600Z,16.42
2023-02-01T07:41:36.202Z,16.49
2023-02-01T07:42:36.957Z,16.46
2023-02-01T07:43:37.567Z,16.49
2023-02-01T07:44:39.070Z,16.49
2023-02-01T07:45:39.697Z,16.42
2023-02-01T07:46:40.287Z,16.42
2023-02-01T07:47:40.888Z,16.47
2023-02-01T07:48:41.487Z,16.47
2023-02-01T07:49:42.088Z,16.41
2023-02-01T07:50:42.681Z,16.46
2023-02-01T07:51:43.286Z,16.35
2023-02-01T07:52:43.886Z,16.41
2023-02-01T07:53:44.563Z,16.41
2023-02-01T07:54:45.230Z,16.43
2023-02-01T07:55:45.830Z,16.43
2023-02-01T07:56:46.423Z,16.47
2023-02-01T07:57:47.017Z,16.47
2023-02-01T07:58:47.611Z,16.39
2023-02-01T07:59:48.206Z,16.41
2023-02-01T08:00:48.859Z,16.47
2023-02-01T08:01:49.530Z,16.50
2023-02-01T08:02:50.141Z,16.39
2023-02-01T08:03:50.743Z,16.41
2023-02-01T08:04:51.332Z,16.36
2023-02-01T08:05:51.931Z,16.47
2023-02-01T08:06:52.523Z,16.42
2023-02-01T08:07:53.130Z,16.47
2023-02-01T08:08:53.731Z,16.46
2023-02-01T08:09:55.179Z,16.49
2023-02-01T08:10:55.769Z,16.50
2023-02-01T08:11:56.371Z,16.50
2023-02-01T08:12:56.970Z,16.46
2023-02-01T08:13:57.569Z,16.43
2023-02-01T08:14:58.162Z,16.46
2023-02-01T08:15:58.764Z,16.42
2023-02-01T08:16:59.366Z,16.43
2023-02-01T08:17:59.965Z,16.42
2023-02-01T08:19:00.565Z,16.47
2023-02-01T08:20:01.159Z,16.41
2023-02-01T08:21:01.763Z,16.41
2023-02-01T08:22:02.361Z,16.50
2023-02-01T08:23:02.951Z,16.47
2023-02-01T08:24:03.555Z,16.47
2023-02-01T08:25:04.159Z,16.38
2023-02-01T08:26:04.741Z,16.41
2023-02-01T08:27:05.355Z,16.36
2023-02-01T08:28:05.943Z,16.33
2023-02-01T08:29:06.533Z,16.38
2023-02-01T08:30:07.134Z,16.36
2023-02-01T08:31:07.768Z,16.39
2023-02-01T08:32:08.503Z,16.36
2023-02-01T08:33:09.107Z,16.35
2023-02-01T08:34:09.697Z,16.33
2023-02-01T08:35:11.096Z,16.36
2023-02-01T08:36:11.718Z,16.36
2023-02-01T08:37:12.371Z,16.33
2023-02-01T08:38:12.972Z,16.46
2023-02-01T08:39:13.714Z,16.42
2023-02-01T08:40:14.305Z,16.36
2023-02-01T08:41:14.899Z,16.39
2023-02-01T08:42:15.503Z,16.38
2023-02-01T08:43:16.223Z,16.33
2023-02-01T08:44:16.890Z,16.29
2023-02-01T08:45:17.477Z,16.36
2023-02-01T08:46:18.368Z,16.38
2023-02-01T08:47:18.984Z,16.32
2023-02-01T08:48:19.583Z,16.32
2023-02-01T08:49:20.199Z,16.36
2023-02-01T08:50:21.925Z,16.32
2023-02-01T08:51:22.686Z,16.35
2023-02-01T08:52:23.282Z,16.31
2023-02-01T08:53:23.882Z,16.36
2023-02-01T08:54:24.471Z,16.35
2023-02-01T08:55:25.067Z,16.36
2023-02-01T08:56:25.716Z,16.32
2023-02-01T08:57:26.292Z,16.38
2023-02-01T08:58:26.885Z,16.36
2023-02-01T08:59:29.555Z,16.31
2023-02-01T09:00:29.075Z,16.36
2023-02-01T09:01:29.771Z,16.35
2023-02-01T09:02:30.347Z,16.35
2023-02-01T09:03:31.014Z,16.33
2023-02-01T09:04:31.605Z,16.35
2023-02-01T09:05:47.530Z,16.33
2023-02-01T09:06:33.797Z,16.42
2023-02-01T09:07:34.391Z,16.38
2023-02-01T09:08:34.990Z,16.36
2023-02-01T09:09:35.604Z,16.33
2023-02-01T09:10:36.759Z,16.28
2023-02-01T09:11:37.641Z,16.31
2023-02-01T09:12:38.232Z,16.29
2023-02-01T09:13:38.823Z,16.31
2023-02-01T09:14:39.422Z,16.28
2023-02-01T09:15:40.054Z,16.24
2023-02-01T09:16:40.651Z,16.31
2023-02-01T09:17:41.240Z,16.28
2023-02-01T09:18:50.671Z,16.24
2023-02-01T09:19:43.484Z,16.32
2023-02-01T09:20:44.150Z,16.28
2023-02-01T09:21:44.750Z,16.33
2023-02-01T09:22:45.344Z,16.32
2023-02-01T09:23:45.932Z,16.31
2023-02-01T09:24:46.576Z,16.23
2023-02-01T09:25:47.178Z,16.26
2023-02-01T09:26:47.803Z,16.21
2023-02-01T09:27:48.411Z,16.31
2023-02-01T09:28:49.003Z,16.20
2023-02-01T09:29:49.605Z,16.21
2023-02-01T09:30:50.291Z,16.29
2023-02-01T09:32:03.028Z,16.21
2023-02-01T09:32:52.509Z,16.28
2023-02-01T09:33:53.089Z,16.32
2023-02-01T09:34:53.693Z,16.20
2023-02-01T09:35:54.292Z,16.15
2023-02-01T09:36:54.929Z,16.32
2023-02-01T09:37:55.538Z,16.32
2023-02-01T09:38:56.124Z,16.29
2023-02-01T09:39:56.776Z,16.15
2023-02-01T09:40:57.367Z,16.26
2023-02-01T09:41:57.988Z,16.31
2023-02-01T09:42:58.572Z,16.31
2023-02-01T09:43:59.166Z,16.17
2023-02-01T09:44:59.782Z,16.31
2023-02-01T09:46:00.546Z,16.26
2023-02-01T09:47:01.161Z,16.26
2023-02-01T09:48:01.815Z,16.32
2023-02-01T09:49:02.392Z,16.32
2023-02-01T09:50:02.983Z,16.32
2023-02-01T09:51:03.585Z,16.41
2023-02-01T09:52:04.214Z,16.33
2023-02-01T09:53:04.994Z,16.36
2023-02-01T09:54:05.594Z,16.32
2023-02-01T09:55:06.206Z,16.33
2023-02-01T09:56:06.827Z,16.32
2023-02-01T09:57:07.441Z,16.32
2023-02-01T09:58:08.033Z,16.33
2023-02-01T09:59:08.628Z,16.36
2023-02-01T10:00:09.221Z,16.38
2023-02-01T10:01:09.842Z,16.33
2023-02-01T10:02:10.427Z,16.38
2023-02-01T10:03:11.163Z,16.35
2023-02-01T10:04:11.802Z,16.38
2023-02-01T10:05:12.397Z,16.38
2023-02-01T10:06:13.001Z,16.33
2023-02-01T10:07:13.601Z,16.36
2023-02-01T10:08:14.203Z,16.38
2023-02-01T10:09:14.802Z,16.38
2023-02-01T10:10:15.396Z,16.35
2023-02-01T10:11:15.988Z,16.39
2023-02-01T10:12:16.592Z,16.36
2023-02-01T10:13:17.195Z,16.33
2023-02-01T10:14:17.793Z,16.36
2023-02-01T10:15:18.460Z,16.36
2023-02-01T10:16:19.164Z,16.36
2023-02-01T10:17:19.816Z,16.43
2023-02-01T10:18:20.486Z,16.47
2023-02-01T10:19:21.087Z,16.35
2023-02-01T10:20:22.369Z,16.35
2023-02-01T10:21:23.120Z,16.32
2023-02-01T10:22:26.696Z,16.49
2023-02-01T10:23:33.987Z,16.41
2023-02-01T10:24:26.061Z,16.47
2023-02-01T10:25:26.649Z,16.38
2023-02-01T10:26:27.292Z,16.42
2023-02-01T10:27:27.881Z,16.43
2023-02-01T10:28:28.485Z,16.33
2023-02-01T10:29:29.080Z,16.39
2023-02-01T10:30:32.785Z,16.36
2023-02-01T10:31:30.497Z,16.47
2023-02-01T10:32:31.143Z,16.38
2023-02-01T10:33:31.751Z,16.42
2023-02-01T10:34:32.335Z,16.47
2023-02-01T10:35:32.924Z,16.43
2023-02-01T10:36:33.525Z,16.47
2023-02-01T10:37:34.176Z,16.39
2023-02-01T10:38:34.761Z,16.43
2023-02-01T10:39:35.353Z,16.42
2023-02-01T10:40:35.951Z,16.46
2023-02-01T10:41:36.656Z,16.43
2023-02-01T10:42:37.254Z,16.43
2023-02-01T10:43:37.855Z,16.47
2023-02-01T10:44:38.477Z,16.43
2023-02-01T10:45:39.057Z,16.46
2023-02-01T10:46:39.716Z,16.47
2023-02-01T10:47:40.360Z,16.46
2023-02-01T10:48:41.113Z,16.41
2023-02-01T10:49:41.761Z,16.43
2023-02-01T10:50:42.377Z,16.43
2023-02-01T10:51:42.962Z,16.41
2023-02-01T10:52:43.567Z,16.43
2023-02-01T10:53:44.158Z,16.42
2023-02-01T10:54:44.764Z,16.47
2023-02-01T10:55:45.363Z,16.47
2023-02-01T10:56:46.139Z,16.42
2023-02-01T10:57:46.759Z,16.46
2023-02-01T10:58:47.356Z,16.43
2023-02-01T10:59:47.948Z,16.42
2023-02-01T11:00:48.701Z,16.43
2023-02-01T11:01:49.374Z,16.49
2023-02-01T11:02:50.015Z,16.49
2023-02-01T11:03:50.602Z,16.42
2023-02-01T11:04:51.205Z,16.46
2023-02-01T11:05:51.799Z,16.49
2023-02-01T11:06:52.400Z,16.53
2023-02-01T11:07:53.002Z,16.49
2023-02-01T11:08:53.597Z,16.47
2023-02-01T11:09:54.197Z,16.47
2023-02-01T11:10:54.802Z,16.50
2023-02-01T11:11:55.403Z,16.53
2023-02-01T11:12:56.012Z,16.42
2023-02-01T11:13:56.671Z,16.47
2023-02-01T11:14:57.267Z,16.54
2023-02-01T11:15:57.948Z,16.53
2023-02-01T11:16:58.548Z,16.60
2023-02-01T11:17:59.152Z,16.49
2023-02-01T11:18:59.785Z,16.53
2023-02-01T11:20:00.397Z,16.60
2023-02-01T11:21:00.977Z,16.57
2023-02-01T11:22:01.581Z,16.49
2023-02-01T11:23:02.182Z,16.53
2023-02-01T11:24:02.779Z,16.47
2023-02-01T11:25:03.457Z,16.57
2023-02-01T11:26:04.041Z,16.51
2023-02-01T11:27:06.823Z,16.57
2023-02-01T11:28:06.239Z,16.60
2023-02-01T11:29:06.884Z,16.60
2023-02-01T11:30:07.481Z,16.60
2023-02-01T11:31:08.253Z,16.47
2023-02-01T11:32:08.887Z,16.53
2023-02-01T11:33:09.480Z,16.47
2023-02-01T11:34:10.081Z,16.53
2023-02-01T11:35:10.685Z,16.49
2023-02-01T11:36:11.274Z,16.60
2023-02-01T11:37:11.869Z,16.43
2023-02-01T11:38:12.563Z,16.50
2023-02-01T11:39:13.148Z,16.47
2023-02-01T11:40:13.748Z,16.41
2023-02-01T11:41:14.329Z,16.47
2023-02-01T11:42:14.934Z,16.46
2023-02-01T11:43:15.532Z,16.42
2023-02-01T11:44:16.114Z,16.43
2023-02-01T11:45:16.717Z,16.51
2023-02-01T11:46:17.354Z,16.47
2023-02-01T11:47:17.973Z,16.47
2023-02-01T11:48:26.850Z,16.42
2023-02-01T11:49:20.209Z,16.43
2023-02-01T11:50:20.800Z,16.42
2023-02-01T11:51:21.408Z,16.41
2023-02-01T11:52:22.005Z,16.43
2023-02-01T11:53:23.444Z,16.41
2023-02-01T11:54:24.039Z,16.46
2023-02-01T11:55:24.644Z,16.49
2023-02-01T11:56:25.235Z,16.39
2023-02-01T11:57:25.841Z,16.38
2023-02-01T11:58:26.443Z,16.47
2023-02-01T11:59:27.960Z,16.46
2023-02-01T12:00:29.457Z,16.47
2023-02-01T12:01:30.052Z,16.43
2023-02-01T12:02:30.656Z,16.36
2023-02-01T12:03:31.278Z,16.39
2023-02-01T12:04:31.890Z,16.41
2023-02-01T12:05:32.489Z,16.38
2023-02-01T12:06:33.079Z,16.38
2023-02-01T12:07:33.674Z,16.43
2023-02-01T12:08:34.268Z,16.39
2023-02-01T12:09:34.869Z,16.31
2023-02-01T12:10:35.467Z,16.35
2023-02-01T12:11:36.069Z,16.38
2023-02-01T12:12:36.668Z,16.39
2023-02-01T12:13:37.263Z,16.38
2023-02-01T12:14:37.861Z,16.33
2023-02-01T12:15:38.499Z,16.35
2023-02-01T12:16:39.126Z,16.36
2023-02-01T12:17:39.742Z,16.38
2023-02-01T12:18:40.345Z,16.39
2023-02-01T12:19:40.945Z,16.38
2023-02-01T12:20:41.539Z,16.36
2023-02-01T12:21:42.206Z,16.39
2023-02-01T12:22:42.800Z,16.33
2023-02-01T12:23:43.402Z,16.32
2023-02-01T12:24:44.009Z,16.36
2023-02-01T12:25:44.597Z,16.38
2023-02-01T12:26:45.322Z,16.35
2023-02-01T12:27:45.871Z,16.33
2023-02-01T12:28:46.461Z,16.32
2023-02-01T12:29:47.124Z,16.35
2023-02-01T12:30:48.538Z,16.38
2023-02-01T12:31:49.979Z,16.36
2023-02-01T12:32:51.451Z,16.39
2023-02-01T12:33:52.085Z,16.36
2023-02-01T12:34:52.850Z,16.36
2023-02-01T12:35:53.449Z,16.35
2023-02-01T12:36:54.051Z,16.38
2023-02-01T12:37:54.712Z,16.32
2023-02-01T12:38:55.475Z,16.39
2023-02-01T12:39:56.134Z,16.31
2023-02-01T12:40:56.729Z,16.35
2023-02-01T12:41:57.331Z,16.39
2023-02-01T12:42:57.930Z,16.31
2023-02-01T12:43:58.529Z,16.32
2023-02-01T12:44:59.132Z,16.31
2023-02-01T12:45:59.781Z,16.38
2023-02-01T12:47:00.363Z,16.38
2023-02-01T12:48:00.965Z,16.38
2023-02-01T12:49:01.587Z,16.35
2023-02-01T12:50:02.225Z,16.29
2023-02-01T12:51:02.819Z,16.39
2023-02-01T12:52:03.431Z,16.32
2023-02-01T12:53:04.009Z,16.29
2023-02-01T12:54:04.608Z,16.29
2023-02-01T12:55:05.235Z,16.32
2023-02-01T12:56:05.841Z,16.35
2023-02-01T12:57:06.443Z,16.39
2023-02-01T12:58:07.032Z,16.33
2023-02-01T12:59:07.625Z,16.33
2023-02-01T13:00:08.225Z,16.33
2023-02-01T13:01:08.833Z,16.29